createdAt,value
2018-10-11T00:00:36.414Z,100907.16
2018-10-11T00:01:41.889Z,100906.58
2018-10-11T00:02:47.558Z,100905.70
2018-10-11T00:03:52.972Z,100902.39
2018-10-11T00:05:04.225Z,100901.56
2018-10-11T00:06:09.967Z,100899.88
2018-10-11T00:07:15.524Z,100907.16
2018-10-11T00:08:21.164Z,100907.61
2018-10-11T00:09:26.655Z,100912.77
2018-10-11T00:10:32.162Z,100906.06
2018-10-11T00:11:37.852Z,100907.97
2018-10-11T00:12:43.285Z,100909.51
2018-10-11T00:13:48.737Z,100909.37
2018-10-11T00:14:54.234Z,100906.42
2018-10-11T00:15:59.859Z,100911.12
2018-10-11T00:17:05.332Z,100902.55
2018-10-11T00:18:11.037Z,100901.26
2018-10-11T00:19:16.546Z,100893.52
2018-10-11T00:20:22.007Z,100897.84
2018-10-11T00:21:27.469Z,100897.84
2018-10-11T00:22:32.977Z,100895.75
2018-10-11T00:23:38.452Z,100900.64
2018-10-11T00:24:43.977Z,100894.66
2018-10-11T00:25:49.594Z,100904.78
2018-10-11T00:26:55.184Z,100900.86
2018-10-11T00:28:00.625Z,100895.38
2018-10-11T00:29:06.356Z,100899.25
2018-10-11T00:30:11.788Z,100897.91
2018-10-11T00:31:17.393Z,100894.45
2018-10-11T00:32:22.816Z,100897.28
2018-10-11T00:33:28.224Z,100889.95
2018-10-11T00:34:33.719Z,100895.95
2018-10-11T00:35:39.277Z,100890.44
2018-10-11T00:36:44.866Z,100889.18
2018-10-11T00:37:50.380Z,100886.66
2018-10-11T00:38:55.877Z,100888.50
2018-10-11T00:40:01.351Z,100883.41
2018-10-11T00:41:07.053Z,100881.74
2018-10-11T00:42:12.646Z,100884.69
2018-10-11T00:43:18.165Z,100881.80
2018-10-11T00:44:23.618Z,100885.04
2018-10-11T00:45:29.061Z,100885.45
2018-10-11T00:46:34.758Z,100889.36
2018-10-11T00:47:40.300Z,100887.30
2018-10-11T00:48:45.801Z,100886.84
2018-10-11T00:49:51.529Z,100881.17
2018-10-11T00:50:57.295Z,100886.69
2018-10-11T00:52:02.765Z,100886.02
2018-10-11T00:53:08.340Z,100885.55
2018-10-11T00:54:13.799Z,100886.38
2018-10-11T00:55:19.362Z,100879.11
2018-10-11T00:56:24.825Z,100879.11
2018-10-11T00:57:30.258Z,100882.14
2018-10-11T00:58:35.829Z,100875.75
2018-10-11T00:59:41.307Z,100879.77
2018-10-11T01:00:46.832Z,100877.44
2018-10-11T01:01:52.305Z,100878.67
2018-10-11T01:02:57.781Z,100876.09
2018-10-11T01:04:03.365Z,100876.52
2018-10-11T01:05:08.843Z,100872.73
2018-10-11T01:06:14.349Z,100871.50
2018-10-11T01:07:19.905Z,100869.44
2018-10-11T01:08:25.445Z,100871.55
2018-10-11T01:09:31.093Z,100872.33
2018-10-11T01:10:36.441Z,100872.17
2018-10-11T01:11:42.516Z,100866.20
2018-10-11T01:12:48.045Z,100869.03
2018-10-11T01:13:53.489Z,100866.18
2018-10-11T01:14:59.061Z,100865.72
2018-10-11T01:16:04.562Z,100864.48
2018-10-11T01:17:10.098Z,100858.55
2018-10-11T01:18:15.556Z,100861.91
2018-10-11T01:19:21.140Z,100862.92
2018-10-11T01:20:26.641Z,100862.14
2018-10-11T01:21:32.089Z,100857.04
2018-10-11T01:22:37.573Z,100859.72
2018-10-11T01:23:43.115Z,100862.30
2018-10-11T01:24:48.517Z,100861.06
2018-10-11T01:25:54.049Z,100863.72
2018-10-11T01:26:59.637Z,100862.08
2018-10-11T01:28:05.197Z,100862.91
2018-10-11T01:29:10.742Z,100856.19
2018-10-11T01:30:16.173Z,100854.85
2018-10-11T01:31:23.094Z,100859.55
2018-10-11T01:32:28.584Z,100854.02
2018-10-11T01:33:34.010Z,100849.80
2018-10-11T01:34:39.629Z,100858.05
2018-10-11T01:35:45.086Z,100852.48
2018-10-11T01:36:50.633Z,100849.17
2018-10-11T01:37:56.238Z,100850.66
2018-10-11T01:39:01.674Z,100848.48
2018-10-11T01:40:07.498Z,100848.03
2018-10-11T01:41:13.130Z,100857.05
2018-10-11T01:42:18.677Z,100857.55
2018-10-11T01:43:24.178Z,100852.91
2018-10-11T01:44:29.781Z,100851.27
2018-10-11T01:45:35.952Z,100854.34
2018-10-11T01:46:41.548Z,100849.66
2018-10-11T01:47:47.203Z,100848.36
2018-10-11T01:48:52.754Z,100853.56
2018-10-11T01:49:58.248Z,100848.92
2018-10-11T01:51:03.739Z,100848.14
2018-10-11T01:52:09.296Z,100842.30
2018-10-11T01:53:14.816Z,100838.11
2018-10-11T01:54:20.332Z,100835.12
2018-10-11T01:55:27.294Z,100838.99
2018-10-11T01:56:32.831Z,100828.23
2018-10-11T01:57:38.253Z,100831.27
2018-10-11T01:58:43.920Z,100830.39
2018-10-11T01:59:49.533Z,100833.38
2018-10-11T02:00:55.051Z,100830.03
2018-10-11T02:02:00.601Z,100831.36
2018-10-11T02:03:06.158Z,100829.25
2018-10-11T02:04:11.604Z,100834.17
2018-10-11T02:05:17.212Z,100835.00
2018-10-11T02:06:22.786Z,100836.28
2018-10-11T02:07:28.259Z,100830.35
2018-10-11T02:08:33.768Z,100826.90
2018-10-11T02:09:39.544Z,100835.68
2018-10-11T02:10:44.801Z,100827.50
2018-10-11T02:11:50.375Z,100829.16
2018-10-11T02:12:56.204Z,100829.57
2018-10-11T02:14:01.764Z,100835.17
2018-10-11T02:15:07.277Z,100832.64
2018-10-11T02:16:12.826Z,100829.34
2018-10-11T02:17:18.312Z,100826.41
2018-10-11T02:18:23.864Z,100822.27
2018-10-11T02:19:29.399Z,100825.30
2018-10-11T02:20:34.906Z,100831.22
2018-10-11T02:21:40.684Z,100824.41
2018-10-11T02:22:46.625Z,100823.59
2018-10-11T02:23:52.244Z,100821.98
2018-10-11T02:24:57.727Z,100825.39
2018-10-11T02:26:03.222Z,100821.94
2018-10-11T02:27:08.768Z,100826.58
2018-10-11T02:28:14.293Z,100819.08
2018-10-11T02:29:19.761Z,100822.58
2018-10-11T02:30:25.379Z,100819.63
2018-10-11T02:31:30.793Z,100819.55
2018-10-11T02:32:36.262Z,100816.23
2018-10-11T02:33:41.743Z,100816.70
2018-10-11T02:34:47.168Z,100816.74
2018-10-11T02:35:52.809Z,100820.17
2018-10-11T02:36:58.248Z,100816.36
2018-10-11T02:38:03.732Z,100816.46
2018-10-11T02:39:10.751Z,100809.33
2018-10-11T02:40:16.301Z,100809.33
2018-10-11T02:41:21.992Z,100801.62
2018-10-11T02:42:27.917Z,100806.48
2018-10-11T02:43:33.357Z,100807.81
2018-10-11T02:44:38.857Z,100806.94
2018-10-11T02:45:44.369Z,100804.45
2018-10-11T02:46:49.895Z,100810.05
2018-10-11T02:47:55.381Z,100807.48
2018-10-11T02:49:00.886Z,100804.91
2018-10-11T02:50:06.759Z,100803.26
2018-10-11T02:51:12.382Z,100801.97
2018-10-11T02:52:18.005Z,100797.42
2018-10-11T02:53:23.590Z,100799.62
2018-10-11T02:54:29.520Z,100800.95
2018-10-11T02:55:35.198Z,100796.63
2018-10-11T02:56:40.968Z,100797.88
2018-10-11T02:58:03.741Z,100796.09
2018-10-11T02:59:34.669Z,100802.28
2018-10-11T03:00:40.297Z,100792.99
2018-10-11T03:01:45.927Z,100798.05
2018-10-11T03:02:51.640Z,100799.02
2018-10-11T03:04:06.449Z,100797.73
2018-10-11T03:05:17.077Z,100803.23
2018-10-11T03:06:22.676Z,100801.16
2018-10-11T03:07:29.333Z,100806.23
2018-10-11T03:08:34.981Z,100809.20
2018-10-11T03:09:41.490Z,100804.52
2018-10-11T03:10:47.628Z,100801.09
2018-10-11T03:11:53.461Z,100798.52
2018-10-11T03:12:58.970Z,100796.85
2018-10-11T03:14:04.527Z,100790.88
2018-10-11T03:15:10.021Z,100797.23
2018-10-11T03:16:15.673Z,100800.66
2018-10-11T03:17:21.225Z,100797.23
2018-10-11T03:18:26.778Z,100795.66
2018-10-11T03:19:32.361Z,100792.20
2018-10-11T03:20:38.145Z,100798.23
2018-10-11T03:21:43.733Z,100796.48
2018-10-11T03:22:49.321Z,100801.21
2018-10-11T03:23:54.788Z,100803.33
2018-10-11T03:25:00.323Z,100802.49
2018-10-11T03:26:05.818Z,100798.23
2018-10-11T03:27:11.304Z,100797.85
2018-10-11T03:28:17.914Z,100794.33
2018-10-11T03:29:23.430Z,100798.77
2018-10-11T03:30:29.077Z,100794.08
2018-10-11T03:31:34.659Z,100791.97
2018-10-11T03:32:40.196Z,100793.67
2018-10-11T03:33:45.797Z,100790.31
2018-10-11T03:34:51.232Z,100788.61
2018-10-11T03:35:56.864Z,100793.34
2018-10-11T03:37:02.276Z,100798.77
2018-10-11T03:38:07.917Z,100803.91
2018-10-11T03:39:13.398Z,100801.75
2018-10-11T03:40:18.901Z,100804.87
2018-10-11T03:41:24.406Z,100806.44
2018-10-11T03:42:29.893Z,100809.47
2018-10-11T03:43:35.324Z,100808.22
2018-10-11T03:44:40.885Z,100807.31
2018-10-11T03:45:46.393Z,100803.58
2018-10-11T03:46:51.924Z,100800.27
2018-10-11T03:47:57.432Z,100801.89
2018-10-11T03:49:02.940Z,100795.87
2018-10-11T03:50:08.464Z,100792.80
2018-10-11T03:51:13.912Z,100794.95
2018-10-11T03:52:19.427Z,100798.81
2018-10-11T03:53:24.897Z,100800.27
2018-10-11T03:54:30.453Z,100796.45
2018-10-11T03:55:35.954Z,100795.67
2018-10-11T03:56:41.443Z,100794.88
2018-10-11T03:57:47.007Z,100792.73
2018-10-11T03:58:52.589Z,100789.53
2018-10-11T03:59:58.138Z,100796.00
2018-10-11T04:01:03.662Z,100794.72
2018-10-11T04:02:09.260Z,100796.05
2018-10-11T04:03:14.833Z,100798.20
2018-10-11T04:04:20.389Z,100798.70
2018-10-11T04:05:25.900Z,100800.77
2018-10-11T04:06:31.421Z,100803.76
2018-10-11T04:07:37.014Z,100808.52
2018-10-11T04:08:42.534Z,100800.40
2018-10-11T04:09:48.074Z,100802.55
2018-10-11T04:10:53.527Z,100798.70
2018-10-11T04:11:58.975Z,100803.52
2018-10-11T04:13:04.497Z,100798.33
2018-10-11T04:14:10.612Z,100800.95
2018-10-11T04:15:16.172Z,100801.57
2018-10-11T04:16:21.663Z,100805.55
2018-10-11T04:17:27.113Z,100805.64
2018-10-11T04:18:32.578Z,100806.39
2018-10-11T04:19:38.049Z,100806.26
2018-10-11T04:20:43.616Z,100801.03
2018-10-11T04:21:49.189Z,100799.83
2018-10-11T04:22:54.757Z,100795.36
2018-10-11T04:24:00.335Z,100796.31
2018-10-11T04:25:06.062Z,100797.44
2018-10-11T04:26:11.603Z,100800.91
2018-10-11T04:27:17.161Z,100801.28
2018-10-11T04:28:22.957Z,100801.25
2018-10-11T04:29:28.352Z,100801.58
2018-10-11T04:30:34.023Z,100802.87
2018-10-11T04:31:39.561Z,100805.89
2018-10-11T04:32:45.025Z,100801.58
2018-10-11T04:33:50.684Z,100800.30
2018-10-11T04:34:56.204Z,100800.41
2018-10-11T04:36:01.711Z,100796.44
2018-10-11T04:37:08.068Z,100791.01
2018-10-11T04:38:13.969Z,100791.09
2018-10-11T04:39:19.545Z,100789.14
2018-10-11T04:40:25.161Z,100786.24
2018-10-11T04:41:30.655Z,100785.12
2018-10-11T04:42:36.203Z,100783.04
2018-10-11T04:43:41.689Z,100784.00
2018-10-11T04:44:47.452Z,100784.75
2018-10-11T04:45:53.054Z,100780.59
2018-10-11T04:46:58.732Z,100784.16
2018-10-11T04:48:04.161Z,100790.95
2018-10-11T04:49:09.840Z,100788.50
2018-10-11T04:50:15.363Z,100790.95
2018-10-11T04:51:21.311Z,100799.95
2018-10-11T04:52:26.897Z,100801.68
2018-10-11T04:53:32.459Z,100797.48
2018-10-11T04:54:38.001Z,100793.72
2018-10-11T04:55:44.560Z,100797.98
2018-10-11T04:56:50.033Z,100788.66
2018-10-11T04:57:55.857Z,100790.81
2018-10-11T04:59:01.461Z,100789.23
2018-10-11T05:00:07.015Z,100795.31
2018-10-11T05:01:12.434Z,100793.20
2018-10-11T05:02:17.953Z,100794.11
2018-10-11T05:03:23.481Z,100796.30
2018-10-11T05:04:28.941Z,100797.62
2018-10-11T05:05:34.399Z,100797.47
2018-10-11T05:06:39.888Z,100799.25
2018-10-11T05:07:45.432Z,100801.81
2018-10-11T05:08:51.073Z,100798.76
2018-10-11T05:09:56.637Z,100796.19
2018-10-11T05:11:02.224Z,100794.16
2018-10-11T05:12:07.889Z,100800.11
2018-10-11T05:13:14.273Z,100800.95
2018-10-11T05:14:19.894Z,100801.02
2018-10-11T05:15:26.694Z,100799.85
2018-10-11T05:16:32.211Z,100801.97
2018-10-11T05:17:37.916Z,100805.38
2018-10-11T05:19:02.241Z,100801.55
2018-10-11T05:20:08.400Z,100799.03
2018-10-11T05:21:14.144Z,100795.25
2018-10-11T05:22:19.714Z,100802.54
2018-10-11T05:23:25.256Z,100800.46
2018-10-11T05:24:30.749Z,100805.67
2018-10-11T05:25:36.358Z,100806.58
2018-10-11T05:26:42.035Z,100807.00
2018-10-11T05:27:47.869Z,100815.56
2018-10-11T05:28:53.305Z,100808.69
2018-10-11T05:29:58.905Z,100814.73
2018-10-11T05:31:04.532Z,100820.36
2018-10-11T05:32:10.606Z,100809.75
2018-10-11T05:33:17.461Z,100811.91
2018-10-11T05:34:23.157Z,100812.87
2018-10-11T05:35:28.653Z,100816.70
2018-10-11T05:36:34.158Z,100819.44
2018-10-11T05:37:39.561Z,100816.47
2018-10-11T05:38:45.475Z,100816.42
2018-10-11T05:39:51.002Z,100811.74
2018-10-11T05:40:56.674Z,100807.97
2018-10-11T05:42:02.453Z,100805.44
2018-10-11T05:43:08.178Z,100798.50
2018-10-11T05:44:13.831Z,100795.63
2018-10-11T05:45:22.255Z,100793.70
2018-10-11T05:46:30.499Z,100793.35
2018-10-11T05:47:36.549Z,100797.20
2018-10-11T05:48:42.097Z,100798.07
2018-10-11T05:49:47.727Z,100802.33
2018-10-11T05:50:53.773Z,100802.38
2018-10-11T05:51:59.344Z,100802.38
2018-10-11T05:53:04.921Z,100804.48
2018-10-11T05:54:10.520Z,100804.45
2018-10-11T05:55:16.477Z,100810.41
2018-10-11T05:56:22.940Z,100808.71
2018-10-11T05:57:28.921Z,100807.05
2018-10-11T05:58:34.685Z,100806.70
2018-10-11T05:59:40.470Z,100804.48
2018-10-11T06:00:45.994Z,100810.06
2018-10-11T06:01:51.606Z,100810.45
2018-10-11T06:03:01.069Z,100820.30
2018-10-11T06:04:08.154Z,100811.31
2018-10-11T06:05:13.702Z,100813.47
2018-10-11T06:06:19.218Z,100809.99
2018-10-11T06:07:24.861Z,100816.79
2018-10-11T06:08:30.568Z,100810.86
2018-10-11T06:09:36.203Z,100806.83
2018-10-11T06:10:43.401Z,100812.94
2018-10-11T06:11:49.034Z,100813.88
2018-10-11T06:12:54.806Z,100815.06
2018-10-11T06:14:00.396Z,100817.24
2018-10-11T06:15:06.667Z,100811.28
2018-10-11T06:16:12.626Z,100815.55
2018-10-11T06:17:18.164Z,100806.08
2018-10-11T06:18:23.806Z,100810.83
2018-10-11T06:19:29.444Z,100816.07
2018-10-11T06:20:35.102Z,100814.44
2018-10-11T06:21:40.718Z,100821.23
2018-10-11T06:22:46.367Z,100818.67
2018-10-11T06:23:51.956Z,100819.77
2018-10-11T06:24:57.613Z,100823.52
2018-10-11T06:26:03.279Z,100821.85
2018-10-11T06:27:08.760Z,100826.91
2018-10-11T06:28:14.374Z,100827.81
2018-10-11T06:29:20.077Z,100823.09
2018-10-11T06:30:25.830Z,100826.45
2018-10-11T06:31:31.353Z,100827.70
2018-10-11T06:32:36.925Z,100825.86
2018-10-11T06:33:43.993Z,100824.51
2018-10-11T06:34:49.668Z,100821.07
2018-10-11T06:35:55.963Z,100823.11
2018-10-11T06:37:02.950Z,100823.34
2018-10-11T06:38:08.453Z,100816.13
2018-10-11T06:39:14.051Z,100815.19
2018-10-11T06:40:19.660Z,100816.92
2018-10-11T06:41:25.303Z,100817.83
2018-10-11T06:42:31.050Z,100822.55
2018-10-11T06:43:36.513Z,100815.64
2018-10-11T06:44:42.065Z,100820.70
2018-10-11T06:45:47.934Z,100824.78
2018-10-11T06:46:53.805Z,100828.62
2018-10-11T06:48:02.320Z,100829.38
2018-10-11T06:49:08.473Z,100829.11
2018-10-11T06:50:14.187Z,100828.62
2018-10-11T06:51:20.001Z,100831.91
2018-10-11T06:52:25.649Z,100828.84
2018-10-11T06:53:31.310Z,100837.64
2018-10-11T06:54:37.063Z,100834.95
2018-10-11T06:55:42.689Z,100836.09
2018-10-11T06:56:48.217Z,100838.13
2018-10-11T06:57:53.676Z,100836.67
2018-10-11T06:58:59.176Z,100836.06
2018-10-11T07:00:05.760Z,100842.45
2018-10-11T07:01:11.324Z,100844.94
2018-10-11T07:02:17.086Z,100847.77
2018-10-11T07:03:22.522Z,100851.03
2018-10-11T07:04:27.957Z,100853.45
2018-10-11T07:05:33.430Z,100848.97
2018-10-11T07:06:38.927Z,100852.27
2018-10-11T07:07:44.496Z,100850.74
2018-10-11T07:08:50.057Z,100847.17
2018-10-11T07:09:55.550Z,100848.38
2018-10-11T07:11:01.106Z,100853.34
2018-10-11T07:12:06.577Z,100851.52
2018-10-11T07:13:12.053Z,100854.83
2018-10-11T07:14:17.725Z,100859.85
2018-10-11T07:15:23.217Z,100860.95
2018-10-11T07:16:28.779Z,100863.36
2018-10-11T07:17:34.248Z,100861.89
2018-10-11T07:18:39.886Z,100863.92
2018-10-11T07:19:45.941Z,100864.99
2018-10-11T07:20:51.535Z,100862.33
2018-10-11T07:21:57.130Z,100867.26
2018-10-11T07:23:02.651Z,100867.95
2018-10-11T07:24:08.137Z,100871.72
2018-10-11T07:25:13.761Z,100877.20
2018-10-11T07:26:19.221Z,100877.20
2018-10-11T07:27:24.732Z,100884.27
2018-10-11T07:28:30.318Z,100878.44
2018-10-11T07:29:35.932Z,100875.22
2018-10-11T07:30:41.715Z,100882.67
2018-10-11T07:31:47.017Z,100884.56
2018-10-11T07:32:52.504Z,100885.84
2018-10-11T07:33:58.044Z,100881.34
2018-10-11T07:35:03.607Z,100879.73
2018-10-11T07:36:09.066Z,100879.38
2018-10-11T07:37:14.516Z,100876.60
2018-10-11T07:38:20.180Z,100878.44
2018-10-11T07:39:25.768Z,100883.39
2018-10-11T07:40:31.356Z,100886.14
2018-10-11T07:41:36.881Z,100883.38
2018-10-11T07:42:42.368Z,100884.83
2018-10-11T07:43:47.853Z,100888.40
2018-10-11T07:44:53.416Z,100885.98
2018-10-11T07:45:58.923Z,100888.34
2018-10-11T07:47:04.555Z,100891.00
2018-10-11T07:48:10.190Z,100888.26
2018-10-11T07:49:15.915Z,100887.58
2018-10-11T07:50:21.549Z,100887.73
2018-10-11T07:51:26.992Z,100886.91
2018-10-11T07:52:32.535Z,100884.54
2018-10-11T07:53:38.085Z,100888.04
2018-10-11T07:54:43.476Z,100890.77
2018-10-11T07:55:49.024Z,100890.25
2018-10-11T07:56:54.555Z,100893.66
2018-10-11T07:58:00.052Z,100895.08
2018-10-11T07:59:05.582Z,100896.05
2018-10-11T08:00:12.991Z,100900.12
2018-10-11T08:01:18.602Z,100903.36
2018-10-11T08:02:24.021Z,100906.97
2018-10-11T08:03:29.540Z,100902.38
2018-10-11T08:04:35.043Z,100909.35
2018-10-11T08:05:40.540Z,100904.73
2018-10-11T08:06:46.180Z,100906.88
2018-10-11T08:07:51.744Z,100902.16
2018-10-11T08:08:57.354Z,100908.22
2018-10-11T08:10:02.890Z,100902.47
2018-10-11T08:11:08.934Z,100899.95
2018-10-11T08:12:14.659Z,100903.06
2018-10-11T08:13:20.292Z,100904.39
2018-10-11T08:14:25.806Z,100895.46
2018-10-11T08:15:31.314Z,100896.50
2018-10-11T08:16:37.013Z,100892.38
2018-10-11T08:17:42.919Z,100897.42
2018-10-11T08:18:48.194Z,100895.47
2018-10-11T08:19:53.712Z,100897.84
2018-10-11T08:20:59.158Z,100897.95
2018-10-11T08:22:04.863Z,100905.45
2018-10-11T08:23:10.508Z,100909.23
2018-10-11T08:24:16.041Z,100910.92
2018-10-11T08:25:21.809Z,100910.03
2018-10-11T08:26:27.444Z,100916.34
2018-10-11T08:27:32.575Z,100906.22
2018-10-11T08:28:38.137Z,100918.97
2018-10-11T08:29:43.608Z,100919.91
2018-10-11T08:30:49.171Z,100923.25
2018-10-11T08:31:54.774Z,100920.47
2018-10-11T08:33:00.248Z,100918.18
2018-10-11T08:34:05.725Z,100919.74
2018-10-11T08:35:11.216Z,100915.09
2018-10-11T08:36:16.738Z,100916.48
2018-10-11T08:37:22.273Z,100925.28
2018-10-11T08:38:27.770Z,100926.94
2018-10-11T08:39:33.263Z,100927.03
2018-10-11T08:40:38.704Z,100926.77
2018-10-11T08:41:44.341Z,100934.55
2018-10-11T08:42:49.906Z,100938.14
2018-10-11T08:43:55.367Z,100932.36
2018-10-11T08:45:00.761Z,100933.28
2018-10-11T08:46:06.711Z,100939.02
2018-10-11T08:47:12.242Z,100936.98
2018-10-11T08:48:17.963Z,100939.19
2018-10-11T08:49:23.537Z,100940.34
2018-10-11T08:50:29.184Z,100946.05
2018-10-11T08:51:34.737Z,100947.80
2018-10-11T08:52:40.210Z,100941.47
2018-10-11T08:53:45.758Z,100938.66
2018-10-11T08:54:52.151Z,100940.72
2018-10-11T08:55:57.709Z,100934.46
2018-10-11T08:57:03.133Z,100934.92
2018-10-11T08:58:08.888Z,100932.80
2018-10-11T08:59:14.565Z,100930.29
2018-10-11T09:00:19.924Z,100931.73
2018-10-11T09:01:25.522Z,100927.66
2018-10-11T09:02:31.034Z,100930.44
2018-10-11T09:03:36.638Z,100927.52
2018-10-11T09:04:42.092Z,100934.00
2018-10-11T09:05:47.590Z,100928.95
2018-10-11T09:06:53.081Z,100934.14
2018-10-11T09:07:58.612Z,100925.06
2018-10-11T09:09:05.490Z,100931.72
2018-10-11T09:10:10.946Z,100929.05
2018-10-11T09:11:16.631Z,100929.34
2018-10-11T09:12:22.129Z,100933.23
2018-10-11T09:13:27.640Z,100936.81
2018-10-11T09:14:33.146Z,100940.45
2018-10-11T09:15:38.631Z,100943.84
2018-10-11T09:16:44.129Z,100939.34
2018-10-11T09:17:50.136Z,100937.63
2018-10-11T09:18:55.741Z,100937.09
2018-10-11T09:20:01.264Z,100934.63
2018-10-11T09:21:07.333Z,100932.24
2018-10-11T09:22:12.821Z,100932.70
2018-10-11T09:23:18.267Z,100935.63
2018-10-11T09:24:23.648Z,100934.77
2018-10-11T09:25:29.209Z,100932.14
2018-10-11T09:26:34.780Z,100933.52
2018-10-11T09:27:40.492Z,100933.05
2018-10-11T09:28:46.134Z,100935.22
2018-10-11T09:29:51.544Z,100938.49
2018-10-11T09:30:57.005Z,100940.10
2018-10-11T09:32:02.548Z,100937.86
2018-10-11T09:33:08.087Z,100936.02
2018-10-11T09:34:13.508Z,100939.95
2018-10-11T09:35:19.030Z,100944.71
2018-10-11T09:36:24.566Z,100944.67
2018-10-11T09:37:30.018Z,100942.37
2018-10-11T09:38:35.567Z,100942.84
2018-10-11T09:39:41.100Z,100941.58
2018-10-11T09:40:46.556Z,100948.85
2018-10-11T09:41:52.029Z,100948.80
2018-10-11T09:42:57.514Z,100947.44
2018-10-11T09:44:03.086Z,100952.19
2018-10-11T09:45:09.037Z,100950.64
2018-10-11T09:46:14.772Z,100953.20
2018-10-11T09:47:20.204Z,100947.08
2018-10-11T09:48:25.672Z,100948.86
2018-10-11T09:49:31.111Z,100948.02
2018-10-11T09:50:36.693Z,100953.35
2018-10-11T09:51:42.211Z,100949.98
2018-10-11T09:52:47.652Z,100951.28
2018-10-11T09:53:53.233Z,100952.72
2018-10-11T09:54:58.903Z,100948.98
2018-10-11T09:56:04.447Z,100946.56
2018-10-11T09:57:22.225Z,100955.50
2018-10-11T09:58:27.813Z,100953.08
2018-10-11T09:59:33.269Z,100950.39
2018-10-11T10:00:43.925Z,100954.00
2018-10-11T10:01:49.425Z,100946.09
2018-10-11T10:02:54.872Z,100949.53
2018-10-11T10:04:00.368Z,100941.84
2018-10-11T10:05:05.966Z,100940.09
2018-10-11T10:06:11.433Z,100938.47
2018-10-11T10:07:17.035Z,100941.19
2018-10-11T10:08:22.566Z,100944.80
2018-10-11T10:09:28.082Z,100942.02
2018-10-11T10:10:33.730Z,100940.54
2018-10-11T10:11:39.205Z,100941.72
2018-10-11T10:12:44.819Z,100945.45
2018-10-11T10:13:50.336Z,100938.78
2018-10-11T10:14:55.924Z,100938.87
2018-10-11T10:16:01.400Z,100938.31
2018-10-11T10:17:07.337Z,100937.17
2018-10-11T10:18:12.865Z,100933.16
2018-10-11T10:19:18.718Z,100932.81
2018-10-11T10:20:24.179Z,100930.93
2018-10-11T10:21:29.684Z,100926.62
2018-10-11T10:22:35.237Z,100921.87
2018-10-11T10:23:40.674Z,100928.14
2018-10-11T10:24:46.154Z,100929.99
2018-10-11T10:25:51.697Z,100929.14
2018-10-11T10:26:57.336Z,100925.94
2018-10-11T10:28:09.709Z,100933.29
2018-10-11T10:29:15.227Z,100928.05
2018-10-11T10:30:25.961Z,100930.08
2018-10-11T10:31:31.545Z,100936.22
2018-10-11T10:32:37.031Z,100931.63
2018-10-11T10:33:42.492Z,100935.52
2018-10-11T10:34:48.042Z,100928.23
2018-10-11T10:35:53.601Z,100932.18
2018-10-11T10:36:59.232Z,100930.69
2018-10-11T10:38:05.118Z,100927.59
2018-10-11T10:39:11.085Z,100924.73
2018-10-11T10:40:16.786Z,100930.20
2018-10-11T10:41:22.321Z,100924.56
2018-10-11T10:42:27.881Z,100927.42
2018-10-11T10:43:33.425Z,100924.67
2018-10-11T10:44:38.908Z,100927.14
2018-10-11T10:45:44.338Z,100921.68
2018-10-11T10:46:49.844Z,100923.28
2018-10-11T10:47:55.329Z,100917.56
2018-10-11T10:49:00.825Z,100922.10
2018-10-11T10:50:06.402Z,100913.88
2018-10-11T10:51:11.834Z,100921.27
2018-10-11T10:52:17.483Z,100910.72
2018-10-11T10:53:22.952Z,100918.87
2018-10-11T10:54:30.487Z,100915.74
2018-10-11T10:55:36.006Z,100910.42
2018-10-11T10:56:41.586Z,100913.41
2018-10-11T10:57:47.196Z,100914.94
2018-10-11T10:58:53.468Z,100918.52
2018-10-11T10:59:58.948Z,100914.77
2018-10-11T11:01:04.417Z,100908.30
2018-10-11T11:02:09.962Z,100904.07
2018-10-11T11:03:15.478Z,100910.78
2018-10-11T11:04:21.032Z,100902.77
2018-10-11T11:05:26.548Z,100903.56
2018-10-11T11:06:32.021Z,100906.52
2018-10-11T11:07:37.569Z,100903.11
2018-10-11T11:08:43.108Z,100905.76
2018-10-11T11:09:48.538Z,100903.14
2018-10-11T11:10:54.019Z,100906.52
2018-10-11T11:11:59.557Z,100902.59
2018-10-11T11:13:05.238Z,100901.10
2018-10-11T11:14:11.934Z,100896.14
2018-10-11T11:15:17.349Z,100894.14
2018-10-11T11:16:22.940Z,100894.41
2018-10-11T11:17:28.408Z,100894.75
2018-10-11T11:18:33.841Z,100894.53
2018-10-11T11:19:39.409Z,100900.48
2018-10-11T11:20:44.879Z,100895.66
2018-10-11T11:21:50.436Z,100895.09
2018-10-11T11:22:55.918Z,100895.10
2018-10-11T11:24:01.424Z,100896.05
2018-10-11T11:25:07.326Z,100890.51
2018-10-11T11:26:12.889Z,100889.69
2018-10-11T11:27:18.458Z,100885.06
2018-10-11T11:28:23.857Z,100887.33
2018-10-11T11:29:29.302Z,100894.23
2018-10-11T11:30:34.792Z,100887.09
2018-10-11T11:31:40.297Z,100884.71
2018-10-11T11:32:45.776Z,100885.92
2018-10-11T11:33:51.409Z,100886.24
2018-10-11T11:34:56.990Z,100886.65
2018-10-11T11:36:02.492Z,100887.39
2018-10-11T11:37:08.198Z,100887.81
2018-10-11T11:38:13.687Z,100885.00
2018-10-11T11:39:19.312Z,100890.31
2018-10-11T11:40:24.802Z,100880.25
2018-10-11T11:41:30.309Z,100882.13
2018-10-11T11:42:35.810Z,100880.83
2018-10-11T11:43:41.314Z,100871.02
2018-10-11T11:44:47.077Z,100878.29
2018-10-11T11:45:52.571Z,100878.06
2018-10-11T11:46:58.072Z,100878.67
2018-10-11T11:48:03.513Z,100876.72
2018-10-11T11:49:09.053Z,100882.81
2018-10-11T11:50:14.575Z,100873.87
2018-10-11T11:51:20.269Z,100880.42
2018-10-11T11:52:25.669Z,100880.27
2018-10-11T11:53:31.128Z,100884.41
2018-10-11T11:54:36.611Z,100879.78
2018-10-11T11:55:42.082Z,100877.30
2018-10-11T11:56:47.814Z,100874.24
2018-10-11T11:57:53.335Z,100877.70
2018-10-11T11:58:58.880Z,100871.98
2018-10-11T12:00:04.498Z,100871.98
2018-10-11T12:01:11.091Z,100867.72
2018-10-11T12:02:16.633Z,100873.39
2018-10-11T12:03:21.982Z,100864.39
2018-10-11T12:04:27.479Z,100863.79
2018-10-11T12:05:33.000Z,100865.55
2018-10-11T12:06:38.782Z,100865.41
2018-10-11T12:07:44.265Z,100865.41
2018-10-11T12:08:49.785Z,100859.59
2018-10-11T12:09:55.405Z,100867.23
2018-10-11T12:11:01.116Z,100860.14
2018-10-11T12:12:06.572Z,100863.85
2018-10-11T12:13:12.986Z,100860.42
2018-10-11T12:14:18.476Z,100858.63
2018-10-11T12:15:25.433Z,100852.09
2018-10-11T12:16:31.059Z,100857.59
2018-10-11T12:17:36.671Z,100858.03
2018-10-11T12:18:42.161Z,100851.49
2018-10-11T12:19:47.652Z,100850.33
2018-10-11T12:20:53.155Z,100852.95
2018-10-11T12:21:58.666Z,100854.75
2018-10-11T12:23:05.243Z,100855.69
2018-10-11T12:24:10.871Z,100858.79
2018-10-11T12:25:16.477Z,100866.65
2018-10-11T12:26:22.261Z,100863.55
2018-10-11T12:27:27.694Z,100861.41
2018-10-11T12:28:33.283Z,100866.64
2018-10-11T12:29:38.759Z,100864.02
2018-10-11T12:30:44.231Z,100861.89